Time;durP1;ratioP1;P1;durP2;ratioP2;P2;SDS_P1;SDS_P2;PMS_P1;PMS_P2;Temp;Humidity;BMP_temperature;BMP_pressure;BME280_temperature;BME280_humidity;BME280_pressure;Samples;Min_cycle;Max_cycle;Signal;HPM_P1;HPM_P2
2022/02/05 00:00:45;;;;;;;;;;;5.90;99.90;;;;;;5050685;28;20434;-47
2022/02/05 00:03:22;;;;;;;;;;;5.90;99.90;;;;;;5048493;28;19924;-48
2022/02/05 00:05:53;;;;;;;;;;;5.90;99.90;;;;;;5050689;28;19925;-47
2022/02/05 00:08:39;;;;;;;;;;;5.90;99.90;;;;;;5050138;28;19947;-47
2022/02/05 00:11:27;;;;;;;;;;;6.00;99.90;;;;;;5039764;28;19940;-47
2022/02/05 00:39:05;;;;;;;;;;;5.90;99.90;;;;;;5050089;28;19931;-47
2022/02/05 00:41:44;;;;;;;;;;;5.90;99.90;;;;;;5046879;28;19925;-47
2022/02/05 00:44:11;;;;;;;;;;;6.00;99.90;;;;;;5044188;28;19924;-47
2022/02/05 00:46:40;;;;;;;;;;;6.00;99.90;;;;;;5073657;22;20440;-50
2022/02/05 00:49:07;;;;;;;;;;;6.00;99.90;;;;;;5092688;28;19931;-48
2022/02/05 00:51:40;;;;;;;;;;;6.00;99.90;;;;;;5104846;28;19958;-48
2022/02/05 00:54:11;;;;;;;;;;;6.00;99.90;;;;;;5097674;28;19991;-49
2022/02/05 00:57:17;;;;;;;;;;;6.00;99.90;;;;;;5100883;28;19928;-48
2022/02/05 00:59:38;;;;;;;;;;;6.10;99.90;;;;;;5098562;28;20007;-48
2022/02/05 01:02:05;;;;;;;;;;;6.10;99.90;;;;;;5093607;28;19924;-48
2022/02/05 01:04:32;;;;;;;;;;;6.20;99.90;;;;;;5090449;28;19924;-49
2022/02/05 01:07:00;;;;;;;;;;;6.20;99.90;;;;;;5081449;28;20378;-48
2022/02/05 01:09:27;;;;;;;;;;;6.20;99.90;;;;;;5092099;28;19950;-48
2022/02/05 01:11:54;;;;;;;;;;;6.00;99.90;;;;;;5100834;28;19915;-49
2022/02/05 01:14:26;;;;;;;;;;;6.00;99.90;;;;;;5104311;28;19925;-49
2022/02/05 01:16:57;;;;;;;;;;;6.00;99.90;;;;;;5091527;28;19925;-49
2022/02/05 01:22:08;;;;;;;;;;;6.10;99.90;;;;;;5094787;28;19964;-48
2022/02/05 01:24:36;;;;;;;;;;;6.00;99.90;;;;;;5092154;28;19925;-48
2022/02/05 01:27:04;;;;;;;;;;;6.10;99.90;;;;;;5085855;28;19959;-48
2022/02/05 01:29:43;;;;;;;;;;;6.00;99.90;;;;;;5081742;28;20385;-48
2022/02/05 01:32:16;;;;;;;;;;;6.00;99.90;;;;;;5078757;28;19925;-49
2022/02/05 01:34:51;;;;;;;;;;;5.90;99.90;;;;;;5091102;28;19985;-49
2022/02/05 01:51:07;;;;;;;;;;;4.60;99.90;;;;;;5066983;28;20445;-49
2022/02/05 01:53:50;;;;;;;;;;;4.40;99.90;;;;;;5076385;28;19924;-49
2022/02/05 01:56:30;;;;;;;;;;;4.40;99.90;;;;;;5075999;28;19924;-48
2022/02/05 02:07:13;;;;;;;;;;;4.10;99.90;;;;;;5065283;28;19928;-48
2022/02/05 02:09:58;;;;;;;;;;;4.00;99.90;;;;;;5055441;28;19932;-48
2022/02/05 02:12:36;;;;;;;;;;;4.00;99.90;;;;;;5055898;28;19978;-49
2022/02/05 02:15:08;;;;;;;;;;;3.90;99.90;;;;;;5067737;28;19978;-49
2022/02/05 02:20:33;;;;;;;;;;;3.80;99.90;;;;;;5075558;28;20494;-49
2022/02/05 02:23:16;;;;;;;;;;;3.70;99.90;;;;;;5075524;28;19974;-49
2022/02/05 02:25:57;;;;;;;;;;;3.70;99.90;;;;;;5075082;28;19979;-49
2022/02/05 02:28:33;;;;;;;;;;;3.60;99.90;;;;;;5075523;28;19935;-49
2022/02/05 02:31:05;;;;;;;;;;;3.60;99.90;;;;;;5074504;28;20298;-48
2022/02/05 02:33:36;;;;;;;;;;;3.70;99.90;;;;;;5074865;28;19963;-48
2022/02/05 02:36:03;;;;;;;;;;;3.70;99.90;;;;;;5073021;28;19924;-48
2022/02/05 02:38:39;;;;;;;;;;;3.60;99.90;;;;;;5074321;28;20314;-49
2022/02/05 02:41:13;;;;;;;;;;;3.60;99.90;;;;;;5054919;28;20391;-48
2022/02/05 02:43:40;;;;;;;;;;;3.90;99.90;;;;;;5055383;28;19979;-49
2022/02/05 02:46:07;;;;;;;;;;;3.90;99.90;;;;;;5055037;28;19960;-49
2022/02/05 02:48:34;;;;;;;;;;;4.00;99.90;;;;;;5054013;28;19925;-49
2022/02/05 02:56:45;;;;;;;;;;;3.80;99.90;;;;;;5074895;28;19970;-49
2022/02/05 02:59:24;;;;;;;;;;;3.80;99.90;;;;;;5074448;28;19929;-49
2022/02/05 03:01:57;;;;;;;;;;;3.70;99.90;;;;;;5074048;28;20071;-49
2022/02/05 03:04:24;;;;;;;;;;;3.70;99.90;;;;;;5074262;28;19931;-49
2022/02/05 03:06:51;;;;;;;;;;;3.60;99.90;;;;;;5066473;28;19987;-49
2022/02/05 03:09:19;;;;;;;;;;;3.60;99.90;;;;;;5053614;28;20284;-49
2022/02/05 03:11:46;;;;;;;;;;;3.60;99.90;;;;;;5053240;28;19925;-49
2022/02/05 03:14:12;;;;;;;;;;;3.50;99.90;;;;;;5054141;28;20015;-50
2022/02/05 03:16:46;;;;;;;;;;;3.40;99.90;;;;;;5070756;28;19974;-49
2022/02/05 03:19:15;;;;;;;;;;;3.50;99.90;;;;;;5073964;28;19971;-49
2022/02/05 03:21:42;;;;;;;;;;;3.30;99.90;;;;;;5057236;28;20322;-49
2022/02/05 03:24:09;;;;;;;;;;;3.50;99.90;;;;;;5055407;28;19931;-49
2022/02/05 03:26:38;;;;;;;;;;;3.60;99.90;;;;;;5071272;28;19924;-49
2022/02/05 03:29:07;;;;;;;;;;;3.60;99.90;;;;;;5072830;28;19983;-49
2022/02/05 03:31:34;;;;;;;;;;;3.40;99.90;;;;;;5074212;28;19928;-49
2022/02/05 03:34:01;;;;;;;;;;;3.60;99.90;;;;;;5073914;28;19959;-49
2022/02/05 03:36:28;;;;;;;;;;;3.50;99.90;;;;;;5073846;28;20291;-49
2022/02/05 03:38:55;;;;;;;;;;;3.50;99.90;;;;;;5073337;28;20274;-49
2022/02/05 03:41:21;;;;;;;;;;;3.50;99.90;;;;;;5074028;28;20038;-49
2022/02/05 03:43:49;;;;;;;;;;;3.40;99.90;;;;;;5073754;28;19908;-49
2022/02/05 03:46:16;;;;;;;;;;;3.40;99.90;;;;;;5063655;28;19978;-49
2022/02/05 03:48:43;;;;;;;;;;;3.30;99.90;;;;;;5073225;28;19928;-49
2022/02/05 03:51:10;;;;;;;;;;;3.30;99.90;;;;;;5073250;28;19928;-49
2022/02/05 03:53:37;;;;;;;;;;;3.30;99.90;;;;;;5073525;28;20237;-49
2022/02/05 03:56:04;;;;;;;;;;;3.20;99.90;;;;;;5073440;28;19975;-50
2022/02/05 03:58:30;;;;;;;;;;;3.10;99.90;;;;;;5072507;28;19982;-49
2022/02/05 04:00:59;;;;;;;;;;;3.10;99.90;;;;;;5072758;28;19925;-49
2022/02/05 04:03:25;;;;;;;;;;;3.00;99.90;;;;;;5071806;28;19924;-49
2022/02/05 04:05:52;;;;;;;;;;;3.10;99.90;;;;;;5071725;28;19925;-49
2022/02/05 04:08:19;;;;;;;;;;;3.10;99.90;;;;;;5072782;28;19928;-49
2022/02/05 04:10:49;;;;;;;;;;;3.10;99.90;;;;;;5069059;28;19925;-49
2022/02/05 04:16:11;;;;;;;;;;;2.90;99.90;;;;;;5070060;28;19928;-49
2022/02/05 04:18:38;;;;;;;;;;;2.90;99.90;;;;;;5072693;28;20310;-50
2022/02/05 04:21:05;;;;;;;;;;;3.10;99.90;;;;;;5073036;28;19962;-49
2022/02/05 04:23:32;;;;;;;;;;;3.00;99.90;;;;;;5074395;28;19990;-49
2022/02/05 04:25:59;;;;;;;;;;;3.10;99.90;;;;;;5076845;28;19971;-49
2022/02/05 04:28:25;;;;;;;;;;;3.10;99.90;;;;;;5076121;28;19936;-49
2022/02/05 04:30:52;;;;;;;;;;;3.10;99.90;;;;;;5076936;28;19932;-49
2022/02/05 04:33:20;;;;;;;;;;;3.10;99.90;;;;;;5076687;28;19929;-50
2022/02/05 04:35:47;;;;;;;;;;;3.00;99.90;;;;;;5076853;28;19924;-49
2022/02/05 04:38:18;;;;;;;;;;;3.00;99.90;;;;;;5076410;28;19970;-50
2022/02/05 04:40:51;;;;;;;;;;;3.10;99.90;;;;;;5071736;28;19986;-50
2022/02/05 04:43:40;;;;;;;;;;;3.00;99.90;;;;;;5076570;28;19968;-50
2022/02/05 04:46:31;;;;;;;;;;;3.00;99.90;;;;;;5076313;28;19924;-49
2022/02/05 04:49:20;;;;;;;;;;;3.10;99.90;;;;;;5076075;28;20387;-49
2022/02/05 04:52:07;;;;;;;;;;;3.00;99.90;;;;;;5076619;28;19924;-49
2022/02/05 04:57:42;;;;;;;;;;;3.00;99.90;;;;;;5073714;28;20325;-49
2022/02/05 05:05:49;;;;;;;;;;;2.90;99.90;;;;;;5076226;28;19928;-49
2022/02/05 05:08:38;;;;;;;;;;;2.90;99.90;;;;;;5075033;28;19925;-49
2022/02/05 05:19:28;;;;;;;;;;;3.00;99.90;;;;;;5073691;28;20404;-49
2022/02/05 05:21:58;;;;;;;;;;;3.00;99.90;;;;;;5074992;28;19937;-49
2022/02/05 05:24:25;;;;;;;;;;;3.10;99.90;;;;;;5074832;28;19981;-55
2022/02/05 05:26:51;;;;;;;;;;;3.00;99.90;;;;;;5075733;28;19928;-49
2022/02/05 05:29:19;;;;;;;;;;;3.00;99.90;;;;;;5071624;28;19928;-49
2022/02/05 05:31:46;;;;;;;;;;;3.00;99.90;;;;;;5075563;28;19928;-49
2022/02/05 05:34:13;;;;;;;;;;;3.10;99.90;;;;;;5074800;28;19929;-49
2022/02/05 05:36:39;;;;;;;;;;;3.00;99.90;;;;;;5074533;28;19928;-49
2022/02/05 05:39:10;;;;;;;;;;;3.00;99.90;;;;;;5075077;28;19998;-48
2022/02/05 05:41:38;;;;;;;;;;;2.90;99.90;;;;;;5059423;28;19925;-49
2022/02/05 05:44:19;;;;;;;;;;;2.90;99.90;;;;;;5056028;28;20229;-49
2022/02/05 05:46:49;;;;;;;;;;;2.90;99.90;;;;;;5055463;28;19978;-49
2022/02/05 05:49:18;;;;;;;;;;;2.80;99.90;;;;;;5056700;28;19955;-49
2022/02/05 05:51:46;;;;;;;;;;;2.90;99.90;;;;;;5075621;28;19929;-49
2022/02/05 05:54:15;;;;;;;;;;;2.80;99.90;;;;;;5064488;28;19931;-49
2022/02/05 05:56:44;;;;;;;;;;;2.80;99.90;;;;;;5056854;28;19924;-49
2022/02/05 05:59:11;;;;;;;;;;;2.80;99.90;;;;;;5074960;28;19974;-49
2022/02/05 06:01:38;;;;;;;;;;;2.80;99.90;;;;;;5075802;28;19928;-49
2022/02/05 06:04:05;;;;;;;;;;;2.80;99.90;;;;;;5065506;28;19929;-49
2022/02/05 06:06:32;;;;;;;;;;;2.90;99.90;;;;;;5055107;28;20007;-49
2022/02/05 06:08:59;;;;;;;;;;;3.00;99.90;;;;;;5058997;28;19924;-48
2022/02/05 06:11:27;;;;;;;;;;;3.00;99.90;;;;;;5056396;28;19929;-48
2022/02/05 06:13:54;;;;;;;;;;;3.20;99.90;;;;;;5055575;28;20405;-49
2022/02/05 06:16:28;;;;;;;;;;;3.30;99.90;;;;;;5055420;28;19924;-48
2022/02/05 06:18:56;;;;;;;;;;;3.00;99.90;;;;;;5072624;28;19929;-49
2022/02/05 06:21:22;;;;;;;;;;;3.00;99.90;;;;;;5071949;28;19931;-49
2022/02/05 06:23:49;;;;;;;;;;;2.90;99.90;;;;;;5079988;28;19928;-48
2022/02/05 06:26:16;;;;;;;;;;;2.80;99.90;;;;;;5073774;28;20007;-48
2022/02/05 06:28:45;;;;;;;;;;;2.80;99.90;;;;;;5073195;28;19936;-48
2022/02/05 06:31:11;;;;;;;;;;;2.80;99.90;;;;;;5072717;28;20344;-48
2022/02/05 06:33:38;;;;;;;;;;;2.70;99.90;;;;;;5073782;28;20349;-48
2022/02/05 06:36:05;;;;;;;;;;;2.90;99.90;;;;;;5074095;28;20326;-49
2022/02/05 06:38:32;;;;;;;;;;;3.00;99.90;;;;;;5073919;28;19924;-49
2022/02/05 06:40:59;;;;;;;;;;;2.90;99.90;;;;;;5072898;28;19931;-49
2022/02/05 06:43:26;;;;;;;;;;;2.80;99.90;;;;;;5080823;28;19928;-49
2022/02/05 06:45:54;;;;;;;;;;;2.80;99.90;;;;;;5073011;28;20513;-49
2022/02/05 06:48:20;;;;;;;;;;;2.90;99.90;;;;;;5109310;22;20367;-47
2022/02/05 06:50:47;;;;;;;;;;;2.90;99.90;;;;;;5090476;28;19978;-47
2022/02/05 06:53:14;;;;;;;;;;;3.00;99.90;;;;;;5080660;28;21735;-47
2022/02/05 06:55:41;;;;;;;;;;;3.00;99.90;;;;;;5092465;28;20318;-47
2022/02/05 06:58:08;;;;;;;;;;;3.00;99.90;;;;;;5092653;28;20019;-47
2022/02/05 07:00:35;;;;;;;;;;;3.00;99.90;;;;;;5092846;28;19954;-48
2022/02/05 07:03:03;;;;;;;;;;;2.90;99.90;;;;;;5092958;28;19928;-47
2022/02/05 07:05:30;;;;;;;;;;;2.80;99.90;;;;;;5092766;28;19977;-47
2022/02/05 07:07:57;;;;;;;;;;;2.70;99.90;;;;;;5092285;28;19924;-48
2022/02/05 07:10:24;;;;;;;;;;;2.80;99.90;;;;;;5092421;28;19924;-47
2022/02/05 07:13:02;;;;;;;;;;;2.80;99.90;;;;;;5091528;28;20455;-47
2022/02/05 07:15:34;;;;;;;;;;;2.90;99.90;;;;;;5085058;28;20015;-47
2022/02/05 07:18:12;;;;;;;;;;;2.90;99.90;;;;;;5086179;28;19928;-46
2022/02/05 07:20:43;;;;;;;;;;;3.00;99.90;;;;;;5073666;28;20365;-45
2022/02/05 07:23:37;;;;;;;;;;;3.10;99.90;;;;;;5081990;28;19935;-46
2022/02/05 07:31:48;;;;;;;;;;;3.30;99.90;;;;;;5022948;28;19932;-44
2022/02/05 07:34:15;;;;;;;;;;;3.40;99.90;;;;;;5030229;28;19925;-45
2022/02/05 07:36:44;;;;;;;;;;;3.40;99.90;;;;;;5049115;28;19982;-47
2022/02/05 07:39:11;;;;;;;;;;;3.40;99.90;;;;;;5087064;28;19925;-47
2022/02/05 07:41:39;;;;;;;;;;;3.50;99.90;;;;;;5092579;28;19924;-47
2022/02/05 07:44:08;;;;;;;;;;;3.50;99.90;;;;;;5087443;28;19924;-47
2022/02/05 07:46:35;;;;;;;;;;;3.60;99.90;;;;;;5084331;28;19987;-47
2022/02/05 07:49:02;;;;;;;;;;;3.60;99.90;;;;;;5084333;28;19924;-46
2022/02/05 07:51:29;;;;;;;;;;;3.70;99.90;;;;;;5071906;28;20336;-47
2022/02/05 07:53:57;;;;;;;;;;;3.80;99.90;;;;;;5091633;28;19924;-46
2022/02/05 07:56:27;;;;;;;;;;;4.00;99.90;;;;;;5088178;28;20455;-48
2022/02/05 07:58:53;;;;;;;;;;;4.10;99.90;;;;;;5073496;28;19929;-46
2022/02/05 08:01:20;;;;;;;;;;;4.20;99.90;;;;;;5072319;28;19924;-47
2022/02/05 08:03:47;;;;;;;;;;;4.30;99.90;;;;;;5071945;28;19928;-46
2022/02/05 08:06:16;;;;;;;;;;;4.50;99.90;;;;;;5076512;28;19948;-46
2022/02/05 08:08:45;;;;;;;;;;;4.60;99.90;;;;;;5092020;28;19924;-47
2022/02/05 08:11:17;;;;;;;;;;;4.70;99.90;;;;;;5092207;28;19971;-47
2022/02/05 08:13:45;;;;;;;;;;;4.80;99.90;;;;;;5092052;28;19924;-46
2022/02/05 08:16:26;;;;;;;;;;;4.90;99.90;;;;;;5092039;28;19955;-47
2022/02/05 08:18:53;;;;;;;;;;;4.90;99.90;;;;;;5092048;28;19924;-47
2022/02/05 08:21:20;;;;;;;;;;;5.00;99.90;;;;;;5091958;28;19966;-46
2022/02/05 08:23:47;;;;;;;;;;;5.70;99.90;;;;;;5088306;28;19924;-47
2022/02/05 08:26:15;;;;;;;;;;;6.30;99.90;;;;;;5088192;28;19924;-46
2022/02/05 08:28:41;;;;;;;;;;;6.70;99.90;;;;;;5091574;28;20008;-47
2022/02/05 08:31:08;;;;;;;;;;;6.80;99.90;;;;;;5090021;28;19930;-47
2022/02/05 08:33:36;;;;;;;;;;;6.80;99.90;;;;;;5085342;28;19939;-47
2022/02/05 08:36:04;;;;;;;;;;;6.80;99.90;;;;;;5077833;28;20451;-46
2022/02/05 08:38:31;;;;;;;;;;;6.90;99.90;;;;;;5090801;28;19925;-47
2022/02/05 08:40:58;;;;;;;;;;;7.00;99.90;;;;;;5091119;28;19924;-46
2022/02/05 08:43:26;;;;;;;;;;;7.60;99.90;;;;;;5091260;28;19924;-47
2022/02/05 08:45:53;;;;;;;;;;;8.50;99.90;;;;;;5091104;28;20402;-45
2022/02/05 08:48:20;;;;;;;;;;;9.30;99.90;;;;;;5090418;28;19970;-44
2022/02/05 08:50:46;;;;;;;;;;;9.70;99.90;;;;;;5090717;28;19981;-47
2022/02/05 08:53:18;;;;;;;;;;;9.90;99.90;;;;;;5091441;28;19932;-46
2022/02/05 08:55:45;;;;;;;;;;;10.00;99.90;;;;;;5091589;28;19924;-47
2022/02/05 08:58:12;;;;;;;;;;;10.30;99.90;;;;;;5090732;28;19931;-47
2022/02/05 09:00:47;;;;;;;;;;;10.30;99.90;;;;;;5091288;28;20037;-47
2022/02/05 09:03:23;;;;;;;;;;;9.20;99.90;;;;;;5090520;28;20000;-45
2022/02/05 09:05:50;;;;;;;;;;;8.70;99.90;;;;;;5086618;28;20441;-45
2022/02/05 09:08:29;;;;;;;;;;;8.90;99.90;;;;;;5089862;28;20332;-44
2022/02/05 09:11:05;;;;;;;;;;;9.20;99.90;;;;;;5093584;28;19932;-45
2022/02/05 09:13:56;;;;;;;;;;;10.50;99.90;;;;;;5094786;28;19924;-46
2022/02/05 09:16:24;;;;;;;;;;;13.50;99.90;;;;;;5094744;28;19947;-45
2022/02/05 09:18:52;;;;;;;;;;;15.70;99.90;;;;;;5092334;28;20608;-45
2022/02/05 09:21:19;;;;;;;;;;;16.70;99.90;;;;;;5094428;28;20407;-45
2022/02/05 09:23:49;;;;;;;;;;;17.60;97.90;;;;;;5094422;28;20536;-46
2022/02/05 09:26:16;;;;;;;;;;;18.10;96.50;;;;;;5094786;28;19932;-46
2022/02/05 09:28:43;;;;;;;;;;;18.60;94.80;;;;;;5094108;28;19928;-45
2022/02/05 09:31:27;;;;;;;;;;;19.10;93.10;;;;;;5078196;28;19924;-49
2022/02/05 09:33:56;;;;;;;;;;;18.00;92.10;;;;;;5074756;28;19951;-50
2022/02/05 09:36:23;;;;;;;;;;;17.60;94.10;;;;;;5073870;28;20325;-48
2022/02/05 09:38:50;;;;;;;;;;;16.90;91.40;;;;;;5073549;28;19925;-49
2022/02/05 09:41:17;;;;;;;;;;;16.90;90.80;;;;;;5073719;28;20352;-50
2022/02/05 09:43:46;;;;;;;;;;;17.20;89.10;;;;;;5073656;28;20367;-50
2022/02/05 09:46:13;;;;;;;;;;;18.60;88.40;;;;;;5074017;28;20302;-50
2022/02/05 09:48:40;;;;;;;;;;;18.30;85.90;;;;;;5092850;28;19924;-48
2022/02/05 09:51:16;;;;;;;;;;;17.90;85.30;;;;;;5073540;28;19932;-48
2022/02/05 09:53:45;;;;;;;;;;;16.70;87.20;;;;;;5073540;28;20291;-48
2022/02/05 09:56:12;;;;;;;;;;;18.10;86.70;;;;;;5073284;28;19947;-49
2022/02/05 09:58:39;;;;;;;;;;;19.20;87.50;;;;;;5073255;28;19991;-49
2022/02/05 10:01:10;;;;;;;;;;;19.20;83.70;;;;;;5073523;28;20124;-50
2022/02/05 10:03:37;;;;;;;;;;;20.00;77.50;;;;;;5073762;28;20002;-49
2022/02/05 10:06:05;;;;;;;;;;;18.70;80.70;;;;;;5073255;28;20015;-50
2022/02/05 10:08:35;;;;;;;;;;;18.00;81.50;;;;;;5073246;28;20015;-50
2022/02/05 10:11:02;;;;;;;;;;;16.30;84.30;;;;;;5073605;28;19951;-49
2022/02/05 10:13:29;;;;;;;;;;;15.80;84.50;;;;;;5073330;28;19978;-48
2022/02/05 10:15:57;;;;;;;;;;;16.80;85.50;;;;;;5073259;28;20372;-50
2022/02/05 10:18:25;;;;;;;;;;;15.90;84.10;;;;;;5074260;28;20305;-49
2022/02/05 10:20:52;;;;;;;;;;;16.30;82.50;;;;;;5092567;28;19977;-49
2022/02/05 10:23:19;;;;;;;;;;;16.90;82.10;;;;;;5093488;28;19924;-49
2022/02/05 10:25:50;;;;;;;;;;;17.20;81.10;;;;;;5093271;28;19924;-49
2022/02/05 10:28:17;;;;;;;;;;;17.10;80.60;;;;;;5092676;28;20026;-50
2022/02/05 10:30:47;;;;;;;;;;;16.70;82.70;;;;;;5093056;28;19970;-51
2022/02/05 10:33:19;;;;;;;;;;;16.60;83.00;;;;;;5092459;28;19924;-50
2022/02/05 10:35:50;;;;;;;;;;;16.90;83.50;;;;;;5090033;28;19931;-49
2022/02/05 10:38:36;;;;;;;;;;;16.60;80.90;;;;;;5092839;28;19931;-50
2022/02/05 10:43:52;;;;;;;;;;;17.20;80.80;;;;;;5093033;28;20061;-49
2022/02/05 10:46:19;;;;;;;;;;;17.00;82.10;;;;;;5092836;28;20554;-50
2022/02/05 10:48:46;;;;;;;;;;;16.70;83.20;;;;;;5085910;28;19986;-49
2022/02/05 10:51:13;;;;;;;;;;;16.00;85.00;;;;;;5092456;28;20340;-50
2022/02/05 10:53:45;;;;;;;;;;;16.30;81.90;;;;;;5093058;28;19931;-48
2022/02/05 10:56:18;;;;;;;;;;;16.40;81.40;;;;;;5092679;28;19927;-50
2022/02/05 10:59:13;;;;;;;;;;;15.40;84.00;;;;;;5092382;28;19924;-51
2022/02/05 11:07:09;;;;;;;;;;;10.20;93.80;;;;;;5092424;28;20050;-49
2022/02/05 11:09:39;;;;;;;;;;;9.40;95.00;;;;;;5092241;28;19924;-49
2022/02/05 11:15:17;;;;;;;;;;;9.10;97.90;;;;;;5092155;28;19985;-50
2022/02/05 11:20:32;;;;;;;;;;;9.00;98.90;;;;;;5090538;28;19989;-50
2022/02/05 11:23:00;;;;;;;;;;;8.70;99.90;;;;;;5091700;28;19928;-50
2022/02/05 11:25:29;;;;;;;;;;;8.40;99.90;;;;;;5092336;28;20005;-48
2022/02/05 11:27:57;;;;;;;;;;;8.20;99.90;;;;;;5091664;28;19989;-50
2022/02/05 11:30:48;;;;;;;;;;;8.00;99.90;;;;;;5091002;28;20393;-50
2022/02/05 11:33:23;;;;;;;;;;;7.90;99.90;;;;;;5085975;28;19932;-50
2022/02/05 11:38:33;;;;;;;;;;;8.30;99.90;;;;;;5090738;28;19920;-50
2022/02/05 11:41:01;;;;;;;;;;;8.50;99.90;;;;;;5092103;28;19925;-48
2022/02/05 11:43:30;;;;;;;;;;;8.60;99.90;;;;;;5091751;28;20023;-49
2022/02/05 11:46:07;;;;;;;;;;;8.70;99.90;;;;;;5077805;28;19932;-49
2022/02/05 11:48:40;;;;;;;;;;;8.80;99.90;;;;;;5071171;28;19978;-49
2022/02/05 11:51:09;;;;;;;;;;;8.80;99.90;;;;;;5071426;28;19929;-49
2022/02/05 11:53:50;;;;;;;;;;;8.80;99.90;;;;;;5071330;28;19928;-50
2022/02/05 11:56:19;;;;;;;;;;;8.80;99.90;;;;;;5072530;28;20445;-49
2022/02/05 11:58:57;;;;;;;;;;;8.70;99.90;;;;;;5085431;28;20003;-50
2022/02/05 12:01:34;;;;;;;;;;;8.60;99.90;;;;;;5091391;28;20405;-49
2022/02/05 12:04:09;;;;;;;;;;;8.50;99.90;;;;;;5091496;28;19924;-49
2022/02/05 12:06:45;;;;;;;;;;;8.30;99.90;;;;;;5091379;28;20436;-49
2022/02/05 12:09:26;;;;;;;;;;;8.40;99.90;;;;;;5091288;28;19985;-48
2022/02/05 12:11:53;;;;;;;;;;;8.30;99.90;;;;;;5091104;28;19973;-48
2022/02/05 12:14:21;;;;;;;;;;;8.50;99.90;;;;;;5071340;28;19982;-49
2022/02/05 12:17:10;;;;;;;;;;;8.50;99.90;;;;;;5070878;28;19924;-49
2022/02/05 12:19:55;;;;;;;;;;;8.40;99.90;;;;;;5090003;28;19924;-48
2022/02/05 12:22:29;;;;;;;;;;;8.60;99.90;;;;;;5071423;28;20413;-49
2022/02/05 12:25:11;;;;;;;;;;;8.60;99.90;;;;;;5082873;28;20026;-48
2022/02/05 12:27:38;;;;;;;;;;;8.60;99.90;;;;;;5089480;28;19928;-48
2022/02/05 12:30:23;;;;;;;;;;;8.60;99.90;;;;;;5091314;28;19928;-49
2022/02/05 12:32:52;;;;;;;;;;;8.60;99.90;;;;;;5091220;28;19927;-51
2022/02/05 12:35:18;;;;;;;;;;;8.60;99.90;;;;;;5091284;28;19973;-50
2022/02/05 12:37:45;;;;;;;;;;;8.60;99.90;;;;;;5090994;28;20312;-49
2022/02/05 12:40:12;;;;;;;;;;;8.50;99.90;;;;;;5089251;28;20339;-49
2022/02/05 12:42:40;;;;;;;;;;;8.50;99.90;;;;;;5091242;28;19973;-49
2022/02/05 12:45:08;;;;;;;;;;;8.70;99.90;;;;;;5094272;28;19928;-50
2022/02/05 12:47:40;;;;;;;;;;;8.70;99.90;;;;;;5118167;22;20041;-52
2022/02/05 12:50:13;;;;;;;;;;;8.60;99.90;;;;;;5071986;28;19925;-53
2022/02/05 12:52:40;;;;;;;;;;;8.60;99.90;;;;;;5075343;28;19932;-52
2022/02/05 12:55:13;;;;;;;;;;;8.70;99.90;;;;;;5093062;28;20001;-51
2022/02/05 12:57:45;;;;;;;;;;;8.60;99.90;;;;;;5092946;28;19935;-52
2022/02/05 13:00:12;;;;;;;;;;;8.40;99.90;;;;;;5092536;28;19978;-51
2022/02/05 13:02:39;;;;;;;;;;;8.50;99.90;;;;;;5092882;28;19963;-52
2022/02/05 13:05:06;;;;;;;;;;;8.50;99.90;;;;;;5092449;28;20463;-52
2022/02/05 13:07:40;;;;;;;;;;;8.50;99.90;;;;;;5083290;28;19936;-53
2022/02/05 13:10:07;;;;;;;;;;;8.60;99.90;;;;;;5063879;28;19936;-53
2022/02/05 13:12:36;;;;;;;;;;;8.60;99.90;;;;;;5052097;28;19994;-53
2022/02/05 13:15:06;;;;;;;;;;;8.80;99.90;;;;;;5054529;28;20027;-53
2022/02/05 13:17:42;;;;;;;;;;;8.70;99.90;;;;;;5072592;28;19924;-53
2022/02/05 13:26:04;;;;;;;;;;;8.60;99.90;;;;;;5072184;28;19939;-51
2022/02/05 13:28:37;;;;;;;;;;;8.60;99.90;;;;;;5071737;28;19924;-53
2022/02/05 13:34:03;;;;;;;;;;;8.50;99.90;;;;;;5092318;28;19931;-53
2022/02/05 13:36:40;;;;;;;;;;;8.60;99.90;;;;;;5092381;28;20036;-51
2022/02/05 13:39:16;;;;;;;;;;;8.60;99.90;;;;;;5091934;28;19925;-53
2022/02/05 13:41:48;;;;;;;;;;;8.60;99.90;;;;;;5091916;28;19954;-52
2022/02/05 13:44:18;;;;;;;;;;;8.50;99.90;;;;;;5076550;28;19928;-53
2022/02/05 13:46:59;;;;;;;;;;;8.30;99.90;;;;;;5071615;28;20027;-53
2022/02/05 13:49:26;;;;;;;;;;;8.30;99.90;;;;;;5070926;28;21832;-52
2022/02/05 13:51:53;;;;;;;;;;;8.40;99.90;;;;;;5077647;28;19931;-52
2022/02/05 13:54:21;;;;;;;;;;;8.30;99.90;;;;;;5091648;28;19932;-52
2022/02/05 13:56:48;;;;;;;;;;;8.20;99.90;;;;;;5082642;28;19981;-53
2022/02/05 13:59:22;;;;;;;;;;;8.20;99.90;;;;;;5091502;28;20003;-52
2022/02/05 14:01:49;;;;;;;;;;;7.90;99.90;;;;;;5091801;28;20018;-52
2022/02/05 14:04:19;;;;;;;;;;;8.10;99.90;;;;;;5091425;28;19928;-52
2022/02/05 14:06:53;;;;;;;;;;;8.00;99.90;;;;;;5084575;28;20043;-52
2022/02/05 14:09:25;;;;;;;;;;;8.10;99.90;;;;;;5071111;28;19990;-52
2022/02/05 14:11:52;;;;;;;;;;;8.30;99.90;;;;;;5071783;28;20017;-52
2022/02/05 14:14:29;;;;;;;;;;;8.40;99.90;;;;;;5071315;28;19958;-52
2022/02/05 14:16:55;;;;;;;;;;;8.30;99.90;;;;;;5071238;28;19928;-52
2022/02/05 14:19:23;;;;;;;;;;;8.50;99.90;;;;;;5069123;28;19986;-52
2022/02/05 14:21:52;;;;;;;;;;;8.30;99.90;;;;;;5071219;28;20707;-52
2022/02/05 14:24:21;;;;;;;;;;;8.40;99.90;;;;;;5071204;28;19928;-52
2022/02/05 14:27:02;;;;;;;;;;;8.20;99.90;;;;;;5071083;28;19978;-52
2022/02/05 14:29:36;;;;;;;;;;;8.20;99.90;;;;;;5070749;28;20015;-51
2022/02/05 14:32:11;;;;;;;;;;;8.10;99.90;;;;;;5071085;28;20301;-52
2022/02/05 14:34:56;;;;;;;;;;;8.20;99.90;;;;;;5071040;28;20317;-52
2022/02/05 14:40:28;;;;;;;;;;;8.10;99.90;;;;;;5090783;28;19990;-53
2022/02/05 14:42:57;;;;;;;;;;;8.10;99.90;;;;;;5091018;28;19935;-51
2022/02/05 14:45:23;;;;;;;;;;;8.00;99.90;;;;;;5091038;28;20001;-53
2022/02/05 14:47:50;;;;;;;;;;;8.10;99.90;;;;;;5090116;28;20223;-53
2022/02/05 14:50:17;;;;;;;;;;;7.80;99.90;;;;;;5090137;28;19927;-54
2022/02/05 14:52:43;;;;;;;;;;;7.70;99.90;;;;;;5070583;28;19929;-53
2022/02/05 14:55:10;;;;;;;;;;;7.70;99.90;;;;;;5070059;28;19925;-53
2022/02/05 14:57:37;;;;;;;;;;;7.80;99.90;;;;;;5070329;28;19990;-53
2022/02/05 15:00:06;;;;;;;;;;;7.80;99.90;;;;;;5069792;28;19958;-52
2022/02/05 15:02:33;;;;;;;;;;;7.70;99.90;;;;;;5070297;28;19932;-53
2022/02/05 15:05:08;;;;;;;;;;;7.60;99.90;;;;;;5070121;28;19933;-53
2022/02/05 15:07:35;;;;;;;;;;;7.60;99.90;;;;;;5069411;28;19967;-52
2022/02/05 15:10:02;;;;;;;;;;;7.60;99.90;;;;;;5069585;28;19931;-52
2022/02/05 15:12:28;;;;;;;;;;;7.40;99.90;;;;;;5074953;28;19989;-53
2022/02/05 15:14:55;;;;;;;;;;;7.40;99.90;;;;;;5090551;28;19928;-53
2022/02/05 15:17:23;;;;;;;;;;;7.50;99.90;;;;;;5090353;28;20309;-53
2022/02/05 15:19:50;;;;;;;;;;;7.50;99.90;;;;;;5089919;28;19928;-51
2022/02/05 15:22:17;;;;;;;;;;;7.50;99.90;;;;;;5090436;28;20057;-52
2022/02/05 15:24:44;;;;;;;;;;;7.30;99.90;;;;;;5086337;28;20460;-52
2022/02/05 15:27:11;;;;;;;;;;;7.30;99.90;;;;;;5082566;28;19928;-52
2022/02/05 15:29:38;;;;;;;;;;;7.30;99.90;;;;;;5074937;28;19925;-52
2022/02/05 15:32:05;;;;;;;;;;;7.20;99.90;;;;;;5069682;28;19932;-52
2022/02/05 15:34:33;;;;;;;;;;;7.10;99.90;;;;;;5069588;28;19928;-53
2022/02/05 15:37:05;;;;;;;;;;;7.20;99.90;;;;;;5069701;28;20058;-52
2022/02/05 15:39:48;;;;;;;;;;;7.10;99.90;;;;;;5069308;28;20350;-53
2022/02/05 15:45:01;;;;;;;;;;;6.90;99.90;;;;;;5069907;28;19928;-52
2022/02/05 15:47:28;;;;;;;;;;;6.80;99.90;;;;;;5069481;28;19928;-52
2022/02/05 15:49:56;;;;;;;;;;;6.90;99.90;;;;;;5069160;28;19993;-52
2022/02/05 15:52:23;;;;;;;;;;;6.90;99.90;;;;;;5069472;28;19924;-52
2022/02/05 15:54:52;;;;;;;;;;;6.70;99.90;;;;;;5077846;28;19982;-52
2022/02/05 15:57:31;;;;;;;;;;;6.60;99.90;;;;;;5069586;28;19931;-52
2022/02/05 16:00:04;;;;;;;;;;;6.50;99.90;;;;;;5069489;28;19967;-52
2022/02/05 16:02:30;;;;;;;;;;;6.40;99.90;;;;;;5070015;28;19970;-53
2022/02/05 16:04:59;;;;;;;;;;;6.30;99.90;;;;;;5069253;28;19932;-54
2022/02/05 16:07:25;;;;;;;;;;;6.30;99.90;;;;;;5074424;28;19924;-52
2022/02/05 16:09:52;;;;;;;;;;;6.20;99.90;;;;;;5082262;28;19985;-53
2022/02/05 16:12:19;;;;;;;;;;;6.10;99.90;;;;;;5069345;28;19978;-52
2022/02/05 16:14:46;;;;;;;;;;;5.90;99.90;;;;;;5069261;28;19932;-52
2022/02/05 16:17:12;;;;;;;;;;;5.70;99.90;;;;;;5069452;28;19924;-53
2022/02/05 16:19:39;;;;;;;;;;;5.60;99.90;;;;;;5071205;28;20340;-52
2022/02/05 16:22:07;;;;;;;;;;;5.50;99.90;;;;;;5085402;28;19928;-52
2022/02/05 16:24:34;;;;;;;;;;;5.40;99.90;;;;;;5081477;28;19932;-53
2022/02/05 16:27:01;;;;;;;;;;;5.20;99.90;;;;;;5073282;28;19958;-53
2022/02/05 16:29:28;;;;;;;;;;;5.00;99.90;;;;;;5072936;28;20023;-52
2022/02/05 16:31:55;;;;;;;;;;;4.80;99.90;;;;;;5073297;28;19958;-53
2022/02/05 16:34:24;;;;;;;;;;;4.70;99.90;;;;;;5072905;28;19928;-53
2022/02/05 16:36:51;;;;;;;;;;;4.50;99.90;;;;;;5093313;28;19950;-53
2022/02/05 16:39:23;;;;;;;;;;;4.40;99.90;;;;;;5082293;28;19924;-52
2022/02/05 16:41:49;;;;;;;;;;;4.20;99.90;;;;;;5073495;28;19925;-52